Terminal Aerodrome Forecast
Issued by NWS Wichita, KS

Home | Current Version | Previous Version | Text Only | Print | Product List | Glossary On
Versions: 1 2 3 4 5 6 7 8 9 10 11 12 13 14 15 16 17 18 19 20 21 22
000
FTUS43 KICT 241142
TAFICT
TAF
KICT 241142Z 2412/2512 16013KT 6SM BR SCT006 OVC009
     FM241300 17013KT 4SM -DZ BR SCT003 OVC005
     FM241700 18019G27KT P6SM SCT009 BKN015
     FM241900 18023G31KT P6SM SCT035
     FM250200 21011KT P6SM VCTS BKN040CB=

USA.gov is the U.S. government's official web portal to all federal, state and local government web resources and services.